Pagina principală
Imagini satelitare Vremea 15-zileClimăMare Cicloane Trăsnet AeroporturiÎntrebări Noutăţi Despre
Meteo : Europa Africa America de Nord America de Sud Asia Australia-Oceania Alte
Limbi Contact

Bucureşti-Băneasa, România

Aurel Vlaicu

Latitudine: 44-30N, Longitudine: 026-08E, Altitudine: 90 m


METAR: LRBS 291600Z VRB01KT CAVOK 25/03 Q1020 NOSIG
short-TAF: invechit (9989 ore)
long-TAF: LRBS 291100Z 2912/3012 VRB04KT CAVOK

Oră: 19:18 (16:18 UTC)

observaţii meteorologice

Raportul a fost facut 18 minute în urmă, la 16:00 UTC  
Vânt 01 kt Variabil
Temperatură 25°C
Umiditatea 24%
Presiune 1020 hPa
Vizibilitate 10 km sau mai mult
Vizibilitatea, norii şi fenomenele meteo actuale mai bune decât valorile sau condiţiile stabilite

Unităţile de măsură

Prognoză

Raportul a fost facut 4 ore si 45 minute în urmă, la 11:33 UTC  
Prognoza valabil de 29la ora 12 UTC până 30la ora 12 UTC
Vânt 04 kt Variabil
Vizibilitate 10 km sau mai mult
Vizibilitatea, norii şi fenomenele meteo actuale mai bune decât valorile sau condiţiile stabilite
Informaţiile de pe acest site fac obiectul unei denegări de responsabilitate
Meteo : Europa Africa America de Nord America de Sud Asia Australia-Oceania Alte
Imagini satelitare Vremea 15-zileClimăMare Cicloane Trăsnet AeroporturiÎntrebări Limbi Contact Noutăţi Despre